Time;durP1;ratioP1;P1;durP2;ratioP2;P2;SDS_P1;SDS_P2;PMS_P1;PMS_P2;Temp;Humidity;BMP_temperature;BMP_pressure;BME280_temperature;BME280_humidity;BME280_pressure;Samples;Min_cycle;Max_cycle;Signal;HPM_P1;HPM_P2
2021/11/21 00:02:14;;;;;;;7.60;4.30;;;16.10;89.50;;;;;;4061201;29;20052;-64
2021/11/21 00:04:39;;;;;;;12.68;5.60;;;16.10;89.60;;;;;;4060974;29;20037;-64
2021/11/21 00:07:01;;;;;;;8.63;4.90;;;16.10;89.80;;;;;;4061311;29;20131;-65
2021/11/21 00:09:23;;;;;;;5.95;4.63;;;16.10;89.80;;;;;;4060985;29;20083;-65
2021/11/21 00:11:46;;;;;;;5.68;4.85;;;16.10;89.70;;;;;;4060608;29;20456;-65
2021/11/21 00:14:09;;;;;;;8.63;5.20;;;16.10;89.80;;;;;;4060837;29;20192;-65
2021/11/21 00:16:31;;;;;;;11.68;4.95;;;16.10;89.70;;;;;;4060727;29;20056;-65
2021/11/21 00:18:53;;;;;;;5.88;4.53;;;16.10;89.80;;;;;;4060641;29;20051;-65
2021/11/21 00:21:17;;;;;;;7.32;4.93;;;16.10;90.00;;;;;;4060798;29;20085;-65
2021/11/21 00:23:39;;;;;;;8.55;4.68;;;16.10;90.00;;;;;;4060880;29;20048;-65
2021/11/21 00:26:02;;;;;;;7.18;4.70;;;16.00;90.00;;;;;;4060532;29;20063;-65
2021/11/21 00:28:24;;;;;;;12.63;5.13;;;16.10;90.00;;;;;;4060236;29;20052;-65
2021/11/21 00:30:48;;;;;;;6.40;5.00;;;16.10;89.90;;;;;;4045731;29;20159;-64
2021/11/21 00:33:10;;;;;;;8.30;5.13;;;16.10;90.00;;;;;;4060379;29;20142;-64
2021/11/21 00:35:33;;;;;;;5.93;4.80;;;16.00;90.00;;;;;;4059985;29;20139;-64
2021/11/21 00:37:58;;;;;;;7.78;4.88;;;16.00;90.00;;;;;;4060174;29;20051;-64
2021/11/21 00:40:21;;;;;;;5.10;4.53;;;16.00;90.00;;;;;;4059003;29;20052;-64
2021/11/21 00:42:43;;;;;;;5.65;4.15;;;16.00;90.10;;;;;;4059870;29;20636;-64
2021/11/21 00:45:07;;;;;;;8.88;5.00;;;16.00;90.00;;;;;;4059213;29;20135;-64
2021/11/21 00:47:29;;;;;;;5.55;4.00;;;16.00;90.10;;;;;;4059834;29;20108;-64
2021/11/21 00:49:51;;;;;;;4.82;4.40;;;16.00;90.00;;;;;;4059865;29;20067;-64
2021/11/21 00:52:16;;;;;;;4.38;3.97;;;16.00;90.00;;;;;;4060239;29;20055;-64
2021/11/21 00:54:49;;;;;;;5.10;4.30;;;16.00;90.00;;;;;;4059853;29;20048;-65
2021/11/21 00:57:11;;;;;;;5.13;3.95;;;16.00;90.20;;;;;;4059154;29;20056;-65
2021/11/21 00:59:34;;;;;;;5.43;4.35;;;16.00;90.10;;;;;;4060219;29;20052;-65
2021/11/21 01:02:01;;;;;;;5.20;4.07;;;16.00;90.10;;;;;;4059869;29;20055;-64
2021/11/21 01:04:24;;;;;;;4.97;4.00;;;16.00;90.10;;;;;;4059761;29;20066;-64
2021/11/21 01:06:46;;;;;;;5.45;3.95;;;16.00;90.20;;;;;;4060188;29;20048;-64
2021/11/21 01:09:08;;;;;;;8.20;3.65;;;16.00;90.20;;;;;;4059846;29;20056;-64
2021/11/21 01:11:31;;;;;;;5.47;4.22;;;16.00;90.30;;;;;;4060213;29;20052;-64
2021/11/21 01:13:53;;;;;;;4.57;3.60;;;15.90;90.20;;;;;;4060198;29;20079;-64
2021/11/21 01:16:18;;;;;;;4.43;4.03;;;15.90;90.20;;;;;;4059255;29;20059;-64
2021/11/21 01:18:40;;;;;;;4.70;4.07;;;15.90;90.30;;;;;;4060063;29;20500;-65
2021/11/21 01:21:03;;;;;;;3.53;3.33;;;15.90;90.30;;;;;;4059755;29;20052;-64
2021/11/21 01:23:25;;;;;;;4.63;3.10;;;15.90;90.30;;;;;;4059709;29;20063;-65
2021/11/21 01:25:48;;;;;;;3.25;3.03;;;15.90;90.40;;;;;;4059379;29;20488;-64
2021/11/21 01:28:11;;;;;;;4.00;3.40;;;15.90;90.40;;;;;;4059311;29;20048;-64
2021/11/21 01:30:34;;;;;;;3.65;3.42;;;15.90;90.40;;;;;;4059611;29;20056;-64
2021/11/21 01:32:57;;;;;;;14.32;8.80;;;15.90;90.40;;;;;;4060183;29;20130;-63
2021/11/21 01:35:20;;;;;;;7.60;5.53;;;15.90;90.50;;;;;;4059357;29;20139;-64
2021/11/21 01:37:42;;;;;;;3.75;3.10;;;15.90;90.40;;;;;;4059445;29;20059;-64
2021/11/21 01:40:08;;;;;;;5.95;5.07;;;15.90;90.50;;;;;;4059647;29;20135;-64
2021/11/21 01:42:30;;;;;;;7.15;4.45;;;15.90;90.50;;;;;;4059626;29;20171;-63
2021/11/21 01:44:54;;;;;;;4.68;3.72;;;15.90;90.60;;;;;;4059751;29;20184;-62
2021/11/21 01:47:16;;;;;;;2.92;2.72;;;15.90;90.60;;;;;;4059307;29;20044;-63
2021/11/21 01:49:38;;;;;;;2.78;2.67;;;15.90;90.60;;;;;;4059160;29;20044;-63
2021/11/21 01:52:00;;;;;;;2.83;2.63;;;15.90;91.00;;;;;;4059063;29;20059;-63
2021/11/21 01:54:23;;;;;;;3.75;3.45;;;15.80;90.50;;;;;;4059192;29;20190;-63
2021/11/21 01:56:46;;;;;;;2.78;2.60;;;15.80;90.50;;;;;;4059371;29;20064;-63
2021/11/21 01:59:08;;;;;;;3.80;2.63;;;15.80;90.50;;;;;;4044637;29;20059;-63
2021/11/21 02:01:31;;;;;;;5.18;4.65;;;15.80;90.60;;;;;;4059219;29;20448;-63
2021/11/21 02:03:54;;;;;;;2.85;2.72;;;15.80;90.90;;;;;;4059678;29;20055;-63
2021/11/21 02:06:16;;;;;;;2.97;2.78;;;15.80;90.50;;;;;;4059679;29;20052;-63
2021/11/21 02:08:38;;;;;;;5.90;3.33;;;15.80;90.40;;;;;;4060487;29;20530;-63
2021/11/21 02:11:00;;;;;;;10.13;5.32;;;15.80;90.50;;;;;;4062558;29;20052;-63
2021/11/21 02:13:23;;;;;;;8.07;4.90;;;15.80;90.50;;;;;;4062207;29;20064;-64
2021/11/21 02:15:45;;;;;;;11.50;6.47;;;15.80;91.00;;;;;;4047656;29;20045;-63
2021/11/21 02:18:09;;;;;;;13.10;6.45;;;15.80;90.60;;;;;;4061965;29;20063;-63
2021/11/21 02:20:46;;;;;;;4.88;4.10;;;15.80;90.70;;;;;;4061797;29;20052;-63
2021/11/21 02:23:09;;;;;;;2.67;2.47;;;15.80;90.60;;;;;;4061850;29;20143;-63
2021/11/21 02:25:31;;;;;;;5.63;4.22;;;15.80;90.80;;;;;;4062267;29;20060;-64
2021/11/21 02:27:53;;;;;;;9.40;6.25;;;15.80;90.80;;;;;;4062138;29;20052;-62
2021/11/21 02:30:15;;;;;;;7.47;4.38;;;15.80;90.80;;;;;;4062289;29;20135;-63
2021/11/21 02:32:38;;;;;;;2.90;2.63;;;15.80;90.80;;;;;;4061299;29;20056;-63
2021/11/21 02:35:00;;;;;;;5.30;3.38;;;15.80;90.80;;;;;;4062558;29;20056;-63
2021/11/21 02:37:24;;;;;;;15.48;7.70;;;15.80;91.20;;;;;;4062115;29;20048;-63
2021/11/21 02:39:46;;;;;;;9.25;4.97;;;15.70;90.80;;;;;;4061730;29;20060;-62
2021/11/21 02:42:08;;;;;;;21.92;9.88;;;15.70;91.20;;;;;;4062197;29;20052;-63
2021/11/21 02:44:30;;;;;;;20.15;8.90;;;15.70;90.80;;;;;;4061690;29;20131;-62
2021/11/21 02:46:53;;;;;;;25.98;9.57;;;15.70;90.80;;;;;;4062162;29;20062;-62
2021/11/21 02:49:15;;;;;;;20.98;7.43;;;15.70;90.80;;;;;;4061566;29;20048;-63
2021/11/21 02:51:37;;;;;;;18.27;7.47;;;15.70;90.80;;;;;;4061918;29;20166;-62
2021/11/21 02:54:01;;;;;;;19.75;7.70;;;15.70;90.80;;;;;;4061155;29;20056;-62
2021/11/21 02:56:23;;;;;;;20.45;7.50;;;15.70;90.90;;;;;;4061630;29;20420;-63
2021/11/21 02:58:46;;;;;;;19.95;7.10;;;15.70;90.90;;;;;;4061427;29;20048;-63
2021/11/21 03:01:10;;;;;;;3.08;1.33;;;15.70;90.90;;;;;;4060929;29;20365;-62
2021/11/21 03:03:33;;;;;;;6.72;1.75;;;15.70;90.90;;;;;;4061902;29;20487;-62
2021/11/21 03:05:57;;;;;;;4.80;1.58;;;15.70;90.90;;;;;;4061568;29;20052;-63
2021/11/21 03:08:20;;;;;;;14.05;5.53;;;15.70;90.90;;;;;;4061738;29;20059;-63
2021/11/21 03:10:43;;;;;;;18.65;5.57;;;15.70;90.90;;;;;;4061729;29;22176;-63
2021/11/21 03:13:08;;;;;;;20.25;5.78;;;15.70;90.90;;;;;;4062091;29;20563;-63
2021/11/21 03:15:30;;;;;;;21.77;6.20;;;15.70;90.90;;;;;;4061689;29;20123;-62
2021/11/21 03:17:52;;;;;;;30.27;10.25;;;15.70;91.10;;;;;;4061614;29;20071;-63
2021/11/21 03:20:17;;;;;;;16.23;5.43;;;15.70;90.90;;;;;;4061366;29;21005;-63
2021/11/21 03:22:40;;;;;;;22.63;6.35;;;15.70;90.90;;;;;;4061657;29;20060;-63
2021/11/21 03:25:03;;;;;;;18.50;5.07;;;15.70;91.00;;;;;;4061568;29;20060;-63
2021/11/21 03:27:26;;;;;;;7.25;2.08;;;15.70;91.00;;;;;;4060876;29;20195;-63
2021/11/21 03:29:48;;;;;;;3.15;1.30;;;15.70;91.00;;;;;;4061599;29;20064;-63
2021/11/21 03:32:11;;;;;;;4.00;1.67;;;15.70;91.00;;;;;;4061017;29;20048;-63
2021/11/21 03:34:37;;;;;;;16.73;4.70;;;15.60;91.00;;;;;;4060722;29;20060;-67
2021/11/21 03:36:59;;;;;;;21.50;6.70;;;15.60;90.90;;;;;;4060760;29;20527;-63
2021/11/21 03:39:21;;;;;;;28.17;7.32;;;15.60;91.00;;;;;;4060747;29;20477;-63
2021/11/21 03:41:43;;;;;;;21.45;6.82;;;15.60;91.00;;;;;;4060608;29;20098;-62
2021/11/21 03:44:08;;;;;;;10.40;2.97;;;15.60;91.00;;;;;;4061012;29;20044;-63
2021/11/21 03:46:30;;;;;;;9.98;3.05;;;15.60;91.00;;;;;;4060813;29;20059;-62
2021/11/21 03:48:53;;;;;;;14.32;2.88;;;15.60;91.00;;;;;;4060635;29;20056;-63
2021/11/21 03:51:15;;;;;;;16.35;4.97;;;15.60;91.00;;;;;;4060813;29;20139;-63
2021/11/21 03:53:37;;;;;;;11.45;3.65;;;15.60;90.90;;;;;;4060871;29;20393;-63
2021/11/21 03:56:00;;;;;;;14.02;3.67;;;15.60;90.90;;;;;;4060725;29;20432;-63
2021/11/21 03:58:22;;;;;;;16.40;3.63;;;15.60;91.00;;;;;;4060989;29;20084;-63
2021/11/21 04:00:46;;;;;;;34.67;8.85;;;15.60;90.90;;;;;;4061125;29;20056;-63
2021/11/21 04:03:08;;;;;;;11.95;4.38;;;15.60;90.90;;;;;;4060346;29;20044;-62
2021/11/21 04:05:31;;;;;;;26.08;6.65;;;15.60;90.90;;;;;;4061028;29;20067;-62
2021/11/21 04:07:53;;;;;;;43.83;12.27;;;15.60;90.90;;;;;;4060768;29;20044;-62
2021/11/21 04:10:15;;;;;;;3.35;1.58;;;15.60;91.00;;;;;;4060975;29;20885;-62
2021/11/21 04:12:38;;;;;;;10.57;3.15;;;15.60;91.20;;;;;;4060508;29;20075;-62
2021/11/21 04:15:00;;;;;;;20.02;5.35;;;15.60;91.40;;;;;;4060530;29;20357;-62
2021/11/21 04:17:24;;;;;;;28.52;6.63;;;15.70;91.30;;;;;;4060764;29;20433;-62
2021/11/21 04:19:46;;;;;;;24.48;7.00;;;15.80;91.20;;;;;;4059991;29;20059;-62
2021/11/21 04:22:08;;;;;;;17.48;4.13;;;15.90;91.10;;;;;;4060752;29;20056;-62
2021/11/21 04:24:30;;;;;;;13.85;2.97;;;15.90;90.90;;;;;;4060938;29;20163;-62
2021/11/21 04:26:52;;;;;;;15.95;4.35;;;15.90;90.70;;;;;;4060645;29;20055;-62
2021/11/21 04:29:14;;;;;;;17.58;3.88;;;16.00;90.60;;;;;;4058617;29;20048;-63
2021/11/21 04:31:36;;;;;;;26.17;8.02;;;16.00;90.60;;;;;;4058972;29;20067;-63
2021/11/21 04:34:00;;;;;;;21.92;5.75;;;16.00;90.50;;;;;;4059437;29;20063;-63
2021/11/21 04:36:22;;;;;;;34.33;7.38;;;16.00;90.50;;;;;;4059909;29;20060;-63
2021/11/21 04:38:44;;;;;;;20.95;5.00;;;16.00;90.50;;;;;;4059392;29;20552;-63
2021/11/21 04:41:06;;;;;;;20.67;5.55;;;16.00;90.50;;;;;;4060185;29;20146;-62
2021/11/21 04:43:28;;;;;;;26.25;7.90;;;16.00;90.50;;;;;;4052010;29;20052;-63
2021/11/21 04:45:50;;;;;;;28.08;7.50;;;16.00;90.50;;;;;;4060455;29;20484;-62
2021/11/21 04:48:13;;;;;;;25.23;7.43;;;16.00;90.40;;;;;;4059817;29;20052;-62
2021/11/21 04:50:36;;;;;;;26.10;7.93;;;16.00;90.50;;;;;;4060011;29;20496;-63
2021/11/21 04:52:59;;;;;;;10.30;3.45;;;16.00;90.90;;;;;;4059881;29;20143;-62
2021/11/21 04:55:21;;;;;;;10.77;2.40;;;15.90;90.60;;;;;;4058542;29;20395;-63
2021/11/21 04:57:43;;;;;;;7.85;4.10;;;16.00;90.70;;;;;;4060192;29;20490;-63
2021/11/21 05:00:08;;;;;;;14.60;3.55;;;16.10;90.60;;;;;;4059967;29;20056;-62
2021/11/21 05:02:30;;;;;;;10.48;2.42;;;16.20;90.40;;;;;;4059901;29;20055;-63
2021/11/21 05:04:52;;;;;;;9.55;3.85;;;16.20;90.20;;;;;;4059746;29;20816;-63
2021/11/21 05:07:16;;;;;;;22.25;6.32;;;16.20;90.10;;;;;;4059750;29;20102;-63
2021/11/21 05:09:38;;;;;;;17.13;5.15;;;16.20;90.00;;;;;;4059864;29;20080;-62
2021/11/21 05:12:00;;;;;;;8.27;3.60;;;16.20;90.00;;;;;;4059772;29;20063;-62
2021/11/21 05:14:22;;;;;;;13.57;4.18;;;16.20;90.00;;;;;;4059555;29;20055;-62
2021/11/21 05:16:45;;;;;;;15.10;4.25;;;16.20;89.90;;;;;;4059590;29;20107;-62
2021/11/21 05:19:07;;;;;;;11.52;4.63;;;16.20;89.90;;;;;;4059635;29;20044;-63
2021/11/21 05:21:29;;;;;;;11.85;4.80;;;16.20;89.90;;;;;;4059513;29;20060;-62
2021/11/21 05:23:53;;;;;;;9.30;4.20;;;16.20;89.90;;;;;;4059597;29;20048;-63
2021/11/21 05:26:15;;;;;;;13.88;4.18;;;16.10;89.90;;;;;;4059675;29;20055;-63
2021/11/21 05:28:36;;;;;;;17.98;7.40;;;16.10;90.00;;;;;;4059753;29;20055;-63
2021/11/21 05:30:59;;;;;;;18.30;5.05;;;16.10;90.00;;;;;;4059471;29;20110;-62
2021/11/21 05:33:21;;;;;;;17.80;7.50;;;16.10;90.00;;;;;;4059608;29;20054;-63
2021/11/21 05:35:43;;;;;;;13.85;6.25;;;16.10;90.00;;;;;;4059033;29;20444;-62
2021/11/21 05:38:05;;;;;;;26.25;10.38;;;16.00;89.90;;;;;;4058937;29;20052;-63
2021/11/21 05:40:29;;;;;;;16.08;6.05;;;16.10;90.00;;;;;;4059401;29;20520;-62
2021/11/21 05:42:52;;;;;;;24.98;8.70;;;16.00;89.90;;;;;;4062870;29;20060;-63
2021/11/21 05:45:14;;;;;;;13.05;5.53;;;16.00;89.90;;;;;;4061975;29;20052;-63
2021/11/21 05:47:36;;;;;;;14.63;3.70;;;16.00;89.90;;;;;;4063165;29;20068;-61
2021/11/21 05:49:59;;;;;;;21.25;6.40;;;15.90;90.00;;;;;;4062355;29;20500;-63
2021/11/21 05:52:21;;;;;;;26.15;10.57;;;15.90;90.00;;;;;;4062330;29;20052;-64
2021/11/21 05:54:43;;;;;;;21.27;7.70;;;16.00;90.20;;;;;;4062499;29;20055;-63
2021/11/21 05:57:07;;;;;;;16.75;5.80;;;16.00;90.30;;;;;;4063182;29;20059;-63
2021/11/21 05:59:29;;;;;;;14.20;4.40;;;16.00;90.10;;;;;;4062281;29;20151;-63
2021/11/21 06:01:51;;;;;;;12.40;2.92;;;16.10;90.00;;;;;;4062515;29;20056;-63
2021/11/21 06:04:13;;;;;;;12.00;2.40;;;16.10;89.80;;;;;;4062273;29;20062;-64
2021/11/21 06:06:35;;;;;;;8.18;2.13;;;16.20;89.60;;;;;;4062639;29;20052;-64
2021/11/21 06:08:57;;;;;;;8.43;1.92;;;16.20;89.60;;;;;;4048018;29;20139;-63
2021/11/21 06:11:20;;;;;;;9.23;2.13;;;16.20;89.30;;;;;;4062406;29;20468;-63
2021/11/21 06:13:44;;;;;;;12.35;3.67;;;16.20;89.20;;;;;;4062348;29;20051;-63
2021/11/21 06:16:06;;;;;;;7.93;1.50;;;16.20;89.00;;;;;;4062476;29;20052;-62
2021/11/21 06:18:29;;;;;;;7.18;2.30;;;16.20;89.00;;;;;;4062362;29;20052;-61
2021/11/21 06:20:51;;;;;;;8.25;1.42;;;16.20;88.90;;;;;;4061748;29;20056;-62
2021/11/21 06:23:13;;;;;;;7.60;1.60;;;16.10;89.00;;;;;;4062023;29;20048;-64
2021/11/21 06:25:35;;;;;;;12.00;2.38;;;16.10;89.00;;;;;;4061862;29;20059;-62
2021/11/21 06:27:58;;;;;;;11.77;2.10;;;16.10;89.00;;;;;;4061920;29;20051;-62
2021/11/21 06:30:21;;;;;;;7.60;2.22;;;16.10;89.10;;;;;;4062036;29;20417;-63
2021/11/21 06:32:44;;;;;;;9.63;2.17;;;16.10;89.10;;;;;;4062289;29;20062;-63
2021/11/21 06:35:07;;;;;;;12.48;2.20;;;16.00;89.10;;;;;;4061750;29;20059;-62
2021/11/21 06:37:29;;;;;;;10.60;2.75;;;16.00;89.10;;;;;;4061661;29;20058;-63
2021/11/21 06:39:51;;;;;;;7.25;2.65;;;16.00;89.30;;;;;;4062000;29;20083;-63
2021/11/21 06:42:14;;;;;;;14.45;2.92;;;15.90;89.30;;;;;;4062172;29;20456;-62
2021/11/21 06:44:35;;;;;;;18.15;4.50;;;15.90;89.40;;;;;;4062295;29;20048;-62
2021/11/21 06:46:59;;;;;;;12.18;5.40;;;15.90;89.40;;;;;;4062240;29;20052;-62
2021/11/21 06:49:22;;;;;;;9.68;4.00;;;15.90;89.30;;;;;;4061841;29;20080;-63
2021/11/21 06:51:44;;;;;;;11.98;4.38;;;15.90;89.30;;;;;;4061948;29;20067;-63
2021/11/21 06:54:07;;;;;;;18.63;5.72;;;15.90;89.50;;;;;;4061551;29;20428;-63
2021/11/21 06:56:32;;;;;;;8.50;4.03;;;15.90;90.00;;;;;;4061614;29;20066;-63
2021/11/21 06:58:54;;;;;;;9.60;2.72;;;15.90;90.00;;;;;;4061470;29;20444;-62
2021/11/21 07:01:16;;;;;;;8.95;1.77;;;16.00;90.00;;;;;;4062396;29;20420;-63
2021/11/21 07:03:40;;;;;;;8.45;1.67;;;16.00;89.80;;;;;;4061382;29;20052;-63
2021/11/21 07:06:02;;;;;;;6.75;1.67;;;16.00;89.40;;;;;;4061901;29;20491;-63
2021/11/21 07:08:25;;;;;;;12.13;2.05;;;16.10;89.30;;;;;;4062004;29;24950;-66
2021/11/21 07:10:47;;;;;;;12.75;1.77;;;16.10;89.00;;;;;;4061709;29;20052;-62
2021/11/21 07:13:09;;;;;;;6.03;1.88;;;16.20;89.20;;;;;;4061633;29;20522;-64
2021/11/21 07:15:31;;;;;;;9.38;1.75;;;16.20;89.00;;;;;;4062130;29;20052;-62
2021/11/21 07:17:54;;;;;;;5.57;1.42;;;16.20;88.80;;;;;;4061745;29;20047;-63
2021/11/21 07:20:17;;;;;;;7.70;1.77;;;16.10;88.50;;;;;;4061631;29;20052;-61
2021/11/21 07:22:40;;;;;;;7.70;1.30;;;16.10;88.60;;;;;;4061595;29;20060;-61
2021/11/21 07:25:02;;;;;;;8.55;1.88;;;16.10;88.60;;;;;;4061421;29;20059;-61
2021/11/21 07:27:24;;;;;;;6.93;1.63;;;16.10;88.70;;;;;;4061499;29;20063;-62
2021/11/21 07:29:46;;;;;;;7.32;1.50;;;16.10;88.90;;;;;;4061661;29;20482;-62
2021/11/21 07:32:10;;;;;;;6.32;1.80;;;16.00;89.00;;;;;;4061076;29;20048;-62
2021/11/21 07:34:32;;;;;;;8.75;1.83;;;16.00;89.10;;;;;;4062014;29;20186;-62
2021/11/21 07:36:56;;;;;;;9.68;2.15;;;15.90;89.00;;;;;;4061235;29;20071;-62
2021/11/21 07:39:18;;;;;;;9.95;2.40;;;15.90;88.90;;;;;;4060642;29;20452;-62
2021/11/21 07:41:40;;;;;;;6.28;2.25;;;15.90;88.90;;;;;;4061296;29;20051;-62
2021/11/21 07:44:07;;;;;;;7.55;1.67;;;15.90;89.30;;;;;;4048829;29;20059;-62
2021/11/21 07:46:29;;;;;;;6.75;1.95;;;15.90;89.70;;;;;;4060764;29;20143;-63
2021/11/21 07:48:51;;;;;;;10.32;1.63;;;15.90;89.70;;;;;;4061346;29;20135;-62
2021/11/21 07:51:13;;;;;;;6.55;2.08;;;15.90;89.50;;;;;;4049400;29;20048;-63
2021/11/21 07:53:36;;;;;;;11.77;1.75;;;16.00;89.30;;;;;;4051908;29;20214;-62
2021/11/21 07:55:58;;;;;;;16.27;2.00;;;16.00;89.10;;;;;;4055060;29;20140;-61
2021/11/21 07:58:21;;;;;;;16.27;2.60;;;16.00;89.20;;;;;;4045335;29;20064;-62
2021/11/21 08:00:43;;;;;;;12.48;2.15;;;16.00;89.10;;;;;;4034909;29;20067;-61
2021/11/21 08:03:05;;;;;;;11.20;1.63;;;16.00;88.50;;;;;;4045064;29;20055;-61
2021/11/21 08:05:28;;;;;;;12.90;2.60;;;16.10;88.30;;;;;;4044781;29;20056;-61
2021/11/21 08:07:50;;;;;;;8.20;1.45;;;16.10;88.50;;;;;;4045404;29;20052;-61
2021/11/21 08:10:13;;;;;;;9.10;2.50;;;16.00;87.90;;;;;;4045389;29;20056;-61
2021/11/21 08:12:35;;;;;;;10.65;1.67;;;16.00;87.60;;;;;;4056806;29;20060;-63
2021/11/21 08:14:58;;;;;;;6.20;1.95;;;16.00;87.60;;;;;;4060381;29;20453;-61
2021/11/21 08:17:20;;;;;;;8.77;1.80;;;16.00;87.90;;;;;;4056035;29;20063;-62
2021/11/21 08:19:42;;;;;;;7.78;1.50;;;16.10;87.50;;;;;;4050082;29;20111;-61
2021/11/21 08:22:05;;;;;;;12.65;2.08;;;16.10;86.90;;;;;;4059643;29;20444;-61
2021/11/21 08:24:27;;;;;;;8.60;2.00;;;16.10;87.50;;;;;;4060032;29;20420;-61
2021/11/21 08:26:51;;;;;;;7.68;1.92;;;16.10;86.30;;;;;;4045363;29;20068;-61
2021/11/21 08:29:13;;;;;;;13.52;4.05;;;16.10;86.20;;;;;;4048140;29;20060;-61
2021/11/21 08:31:52;;;;;;;9.45;2.58;;;16.10;85.90;;;;;;4059682;29;20098;-61
2021/11/21 08:34:14;;;;;;;5.68;2.03;;;16.20;86.70;;;;;;4049341;29;20100;-62
2021/11/21 08:36:36;;;;;;;11.38;2.45;;;16.10;85.60;;;;;;4050409;29;20493;-61
2021/11/21 08:38:59;;;;;;;8.85;3.20;;;16.10;85.40;;;;;;4045261;29;20050;-61
2021/11/21 08:41:21;;;;;;;8.90;2.95;;;16.00;85.10;;;;;;4044829;29;20135;-61
2021/11/21 08:43:45;;;;;;;9.73;2.72;;;16.00;85.20;;;;;;4045574;29;20048;-60
2021/11/21 08:46:07;;;;;;;10.15;2.47;;;16.00;85.20;;;;;;4044874;29;20052;-60
2021/11/21 08:48:30;;;;;;;6.85;2.10;;;16.00;85.20;;;;;;4044551;29;20534;-61
2021/11/21 08:50:53;;;;;;;14.32;2.80;;;15.90;85.20;;;;;;4060436;29;20083;-60
2021/11/21 08:53:16;;;;;;;13.30;2.10;;;16.00;85.10;;;;;;4059883;29;20055;-60
2021/11/21 08:55:38;;;;;;;9.73;1.67;;;15.90;85.20;;;;;;4060007;29;20115;-60
2021/11/21 08:58:00;;;;;;;8.32;2.45;;;15.90;85.30;;;;;;4059379;29;20058;-61
2021/11/21 09:00:24;;;;;;;7.15;3.08;;;15.90;85.40;;;;;;4059539;29;20060;-60
2021/11/21 09:02:48;;;;;;;11.98;2.45;;;15.80;85.10;;;;;;4060000;29;20238;-60
2021/11/21 09:05:14;;;;;;;11.80;1.70;;;15.80;85.20;;;;;;4060750;29;20048;-59
2021/11/21 09:07:36;;;;;;;17.88;1.92;;;15.80;85.30;;;;;;4060345;29;20770;-60
2021/11/21 09:09:58;;;;;;;5.75;1.85;;;15.80;85.30;;;;;;4059188;29;20062;-60
2021/11/21 09:12:20;;;;;;;11.07;2.05;;;15.80;85.40;;;;;;4060171;29;20052;-61
2021/11/21 09:14:42;;;;;;;11.20;2.22;;;15.70;85.40;;;;;;4059497;29;20059;-61
2021/11/21 09:17:06;;;;;;;8.23;1.92;;;15.70;85.40;;;;;;4059529;29;20548;-61
2021/11/21 09:19:28;;;;;;;11.70;2.00;;;15.70;85.30;;;;;;4059675;29;20472;-61
2021/11/21 09:21:50;;;;;;;8.93;1.88;;;15.70;85.20;;;;;;4060105;29;20055;-62
2021/11/21 09:24:13;;;;;;;12.25;2.17;;;15.60;85.30;;;;;;4059835;29;20052;-62
2021/11/21 09:26:35;;;;;;;10.50;2.42;;;15.60;85.30;;;;;;4060236;29;20044;-63
2021/11/21 09:28:57;;;;;;;7.20;1.75;;;15.60;85.70;;;;;;4060487;29;20107;-63
2021/11/21 09:31:19;;;;;;;8.93;2.20;;;15.60;86.20;;;;;;4059586;29;20468;-63
2021/11/21 09:33:43;;;;;;;9.02;1.88;;;15.70;87.00;;;;;;4060211;29;20048;-63
2021/11/21 09:36:08;;;;;;;10.38;2.00;;;16.00;86.20;;;;;;4059961;29;20065;-62
2021/11/21 09:38:30;;;;;;;7.72;2.30;;;16.40;85.00;;;;;;4045348;29;20112;-63
2021/11/21 09:40:53;;;;;;;9.07;1.63;;;17.00;81.90;;;;;;4060199;29;20587;-62
2021/11/21 09:43:15;;;;;;;7.55;1.70;;;17.50;80.20;;;;;;4059397;29;20059;-63
2021/11/21 09:45:38;;;;;;;11.02;2.08;;;18.20;76.70;;;;;;4059907;29;20403;-63
2021/11/21 09:48:02;;;;;;;5.47;2.00;;;18.80;75.00;;;;;;4059705;29;20060;-62
2021/11/21 09:50:28;;;;;;;9.10;2.88;;;19.30;71.50;;;;;;4059792;29;20127;-63
2021/11/21 09:52:51;;;;;;;6.72;2.65;;;19.90;69.00;;;;;;4060168;29;20056;-62
2021/11/21 09:55:14;;;;;;;6.38;1.40;;;20.50;67.10;;;;;;4059713;29;20063;-62
2021/11/21 09:57:37;;;;;;;11.00;2.40;;;20.80;65.60;;;;;;4058930;29;20484;-63
2021/11/21 10:00:00;;;;;;;8.13;2.45;;;21.00;64.20;;;;;;4059577;29;20052;-62
2021/11/21 10:02:31;;;;;;;6.45;1.70;;;21.00;63.40;;;;;;4059107;29;20044;-63
2021/11/21 10:04:53;;;;;;;10.18;2.05;;;21.10;63.40;;;;;;4059682;29;20130;-62
2021/11/21 10:07:25;;;;;;;5.55;1.98;;;21.00;63.50;;;;;;4059648;29;20048;-62
2021/11/21 10:09:47;;;;;;;7.65;4.07;;;20.80;64.00;;;;;;4059130;29;20048;-61
2021/11/21 10:12:09;;;;;;;9.18;2.67;;;20.60;64.60;;;;;;4059533;29;20492;-61
2021/11/21 10:14:33;;;;;;;6.78;1.88;;;20.40;65.30;;;;;;4059288;29;20052;-63
2021/11/21 10:16:55;;;;;;;5.53;1.70;;;20.20;66.20;;;;;;4060376;29;20071;-62
2021/11/21 10:19:18;;;;;;;8.40;1.42;;;20.00;67.20;;;;;;4059822;29;20620;-61
2021/11/21 10:21:52;;;;;;;11.18;2.50;;;19.90;68.00;;;;;;4059701;29;20055;-59
2021/11/21 10:24:23;;;;;;;8.00;2.00;;;19.90;68.40;;;;;;4058849;29;20119;-59
2021/11/21 10:26:45;;;;;;;6.05;1.50;;;19.90;68.90;;;;;;4059481;29;20048;-63
2021/11/21 10:29:28;;;;;;;7.43;1.52;;;20.00;68.70;;;;;;4062407;29;20079;-61
2021/11/21 10:31:50;;;;;;;7.45;1.55;;;20.00;67.00;;;;;;4061639;29;20400;-62
2021/11/21 10:34:15;;;;;;;7.93;1.80;;;20.10;68.20;;;;;;4062472;29;20059;-63
2021/11/21 10:36:39;;;;;;;9.25;2.00;;;20.10;67.60;;;;;;4062169;29;20059;-62
2021/11/21 10:39:06;;;;;;;8.98;2.13;;;20.10;67.50;;;;;;4062056;29;20044;-63
2021/11/21 10:41:31;;;;;;;5.60;2.50;;;20.00;67.80;;;;;;4061860;29;20074;-60
2021/11/21 10:44:00;;;;;;;9.27;2.10;;;20.10;67.70;;;;;;4062756;29;20484;-61
2021/11/21 10:46:34;;;;;;;11.38;2.97;;;20.10;67.30;;;;;;4062034;29;20472;-62
2021/11/21 10:49:20;;;;;;;8.48;2.20;;;20.10;67.70;;;;;;4061787;29;20048;-62
2021/11/21 10:51:43;;;;;;;8.20;2.78;;;20.00;67.50;;;;;;4062151;29;20059;-62
2021/11/21 10:54:18;;;;;;;7.28;2.15;;;20.00;68.20;;;;;;4061615;29;20134;-62
2021/11/21 10:56:47;;;;;;;6.63;1.95;;;19.90;68.60;;;;;;4062171;29;20048;-64
2021/11/21 10:59:10;;;;;;;5.03;1.92;;;19.90;68.70;;;;;;4062260;29;20091;-64
2021/11/21 11:01:32;;;;;;;8.45;2.50;;;20.00;69.00;;;;;;4062154;29;20052;-62
2021/11/21 11:04:08;;;;;;;5.95;2.20;;;20.00;69.00;;;;;;4061958;29;20048;-62
2021/11/21 11:06:30;;;;;;;4.15;0.93;;;20.00;68.40;;;;;;4062019;29;20054;-62
2021/11/21 11:08:53;;;;;;;2.60;0.90;;;19.90;66.50;;;;;;4061993;29;20125;-63
2021/11/21 11:11:15;;;;;;;2.65;0.82;;;19.90;68.30;;;;;;4061943;29;20115;-62
2021/11/21 11:13:39;;;;;;;6.13;1.50;;;19.80;69.00;;;;;;4062300;29;20205;-65
2021/11/21 11:16:01;;;;;;;5.82;1.10;;;19.60;69.40;;;;;;4062228;29;20083;-65
2021/11/21 11:18:23;;;;;;;2.35;0.75;;;19.50;70.00;;;;;;4061235;29;20074;-63
2021/11/21 11:20:47;;;;;;;5.68;2.65;;;19.50;70.70;;;;;;4062182;29;20067;-62
2021/11/21 11:23:09;;;;;;;6.70;1.52;;;19.50;72.30;;;;;;4062355;29;20543;-62
2021/11/21 11:25:33;;;;;;;6.50;2.10;;;19.50;72.50;;;;;;4062199;29;20062;-62
2021/11/21 11:28:00;;;;;;;7.35;2.03;;;19.50;72.40;;;;;;4061918;29;20059;-64
2021/11/21 11:30:30;;;;;;;5.13;1.25;;;19.60;71.90;;;;;;4060583;29;20052;-63
2021/11/21 11:33:05;;;;;;;2.95;1.00;;;19.70;70.30;;;;;;4062309;29;20139;-62
2021/11/21 11:35:32;;;;;;;6.72;2.72;;;19.80;69.00;;;;;;4061344;29;20059;-61
2021/11/21 11:37:56;;;;;;;5.40;1.25;;;19.80;69.10;;;;;;4061879;29;20044;-61
2021/11/21 11:40:55;;;;;;;3.80;0.90;;;19.90;69.00;;;;;;4061299;29;20063;-61
2021/11/21 11:43:36;;;;;;;5.03;1.40;;;19.90;66.70;;;;;;4061946;29;20052;-61
2021/11/21 11:46:02;;;;;;;4.28;1.63;;;20.00;68.00;;;;;;4061531;29;20060;-61
2021/11/21 11:48:35;;;;;;;3.00;0.95;;;20.00;67.80;;;;;;4061993;29;20076;-61
2021/11/21 11:50:59;;;;;;;2.38;0.98;;;19.90;65.90;;;;;;4061264;29;20043;-61
2021/11/21 11:53:33;;;;;;;5.20;2.85;;;19.90;69.00;;;;;;4060920;29;20052;-61
2021/11/21 11:56:11;;;;;;;2.35;2.20;;;20.00;67.70;;;;;;4061169;29;20139;-61
2021/11/21 11:58:48;;;;;;;2.40;1.67;;;20.00;67.80;;;;;;4061267;29;20074;-61
2021/11/21 12:01:12;;;;;;;2.35;1.90;;;20.10;67.10;;;;;;4061355;29;20139;-62
2021/11/21 12:03:41;;;;;;;4.20;2.35;;;20.00;66.40;;;;;;4060873;29;20492;-61
2021/11/21 12:06:05;;;;;;;20.40;10.45;;;20.00;66.40;;;;;;4060624;29;20056;-61
2021/11/21 12:08:27;;;;;;;5.68;3.60;;;19.90;68.20;;;;;;4060973;29;20048;-61
2021/11/21 12:10:51;;;;;;;9.18;4.95;;;19.80;69.40;;;;;;4061025;29;20143;-61
2021/11/21 12:13:25;;;;;;;8.00;3.55;;;19.70;69.80;;;;;;4060987;29;20957;-60
2021/11/21 12:15:54;;;;;;;7.00;4.13;;;19.60;70.00;;;;;;4060656;29;20108;-61
2021/11/21 12:18:18;;;;;;;5.22;2.67;;;19.50;70.50;;;;;;4060157;29;20055;-62
2021/11/21 12:20:47;;;;;;;4.60;0.95;;;19.40;68.80;;;;;;4060853;29;20063;-61
2021/11/21 12:23:10;;;;;;;4.13;1.98;;;19.40;70.70;;;;;;4058824;29;20481;-61
2021/11/21 12:25:32;;;;;;;5.40;1.60;;;19.40;72.20;;;;;;4058667;29;20060;-61